sensor_id;sensor_type;location;lat;lon;timestamp;P1;durP1;ratioP1;P2;durP2;ratioP2
74309;SDS011;62722;51.142;17.052;2023-05-10T00:00:09;9.70;;;4.57;;
74309;SDS011;62722;51.142;17.052;2023-05-10T00:02:58;5.97;;;3.78;;
74309;SDS011;62722;51.142;17.052;2023-05-10T00:05:26;7.32;;;3.90;;
74309;SDS011;62722;51.142;17.052;2023-05-10T00:07:53;7.68;;;4.53;;
74309;SDS011;62722;51.142;17.052;2023-05-10T00:10:21;9.98;;;4.28;;
74309;SDS011;62722;51.142;17.052;2023-05-10T00:12:48;7.25;;;3.70;;
74309;SDS011;62722;51.142;17.052;2023-05-10T00:15:15;9.35;;;4.32;;
74309;SDS011;62722;51.142;17.052;2023-05-10T00:17:42;10.68;;;4.75;;
74309;SDS011;62722;51.142;17.052;2023-05-10T00:20:12;6.82;;;3.67;;
74309;SDS011;62722;51.142;17.052;2023-05-10T00:22:39;6.68;;;4.05;;
74309;SDS011;62722;51.142;17.052;2023-05-10T00:25:07;7.88;;;4.28;;
74309;SDS011;62722;51.142;17.052;2023-05-10T00:27:35;9.30;;;4.57;;
74309;SDS011;62722;51.142;17.052;2023-05-10T00:30:03;7.80;;;4.25;;
74309;SDS011;62722;51.142;17.052;2023-05-10T00:32:31;7.72;;;3.90;;
74309;SDS011;62722;51.142;17.052;2023-05-10T00:34:59;8.20;;;4.28;;
74309;SDS011;62722;51.142;17.052;2023-05-10T00:37:27;7.95;;;4.30;;
74309;SDS011;62722;51.142;17.052;2023-05-10T00:39:55;8.55;;;3.90;;
74309;SDS011;62722;51.142;17.052;2023-05-10T00:42:22;9.13;;;4.45;;
74309;SDS011;62722;51.142;17.052;2023-05-10T00:44:50;8.35;;;4.45;;
74309;SDS011;62722;51.142;17.052;2023-05-10T00:47:17;9.77;;;4.38;;
74309;SDS011;62722;51.142;17.052;2023-05-10T00:49:45;7.38;;;4.47;;
74309;SDS011;62722;51.142;17.052;2023-05-10T00:52:12;8.68;;;4.05;;
74309;SDS011;62722;51.142;17.052;2023-05-10T00:54:41;10.48;;;4.90;;
74309;SDS011;62722;51.142;17.052;2023-05-10T00:57:08;10.13;;;4.63;;
74309;SDS011;62722;51.142;17.052;2023-05-10T00:59:36;8.13;;;4.93;;
74309;SDS011;62722;51.142;17.052;2023-05-10T01:02:04;8.90;;;4.53;;
74309;SDS011;62722;51.142;17.052;2023-05-10T01:04:32;8.88;;;4.28;;
74309;SDS011;62722;51.142;17.052;2023-05-10T01:06:59;10.05;;;4.45;;
74309;SDS011;62722;51.142;17.052;2023-05-10T01:09:27;8.88;;;4.53;;
74309;SDS011;62722;51.142;17.052;2023-05-10T01:11:56;8.60;;;4.47;;
74309;SDS011;62722;51.142;17.052;2023-05-10T01:14:23;8.57;;;4.47;;
74309;SDS011;62722;51.142;17.052;2023-05-10T01:16:52;8.32;;;4.15;;
74309;SDS011;62722;51.142;17.052;2023-05-10T01:19:22;8.63;;;4.30;;
74309;SDS011;62722;51.142;17.052;2023-05-10T01:21:53;10.23;;;4.68;;
74309;SDS011;62722;51.142;17.052;2023-05-10T01:30:42;10.23;;;4.75;;
74309;SDS011;62722;51.142;17.052;2023-05-10T01:33:31;8.80;;;5.18;;
74309;SDS011;62722;51.142;17.052;2023-05-10T01:36:03;8.70;;;4.63;;
74309;SDS011;62722;51.142;17.052;2023-05-10T01:38:38;9.27;;;4.47;;
74309;SDS011;62722;51.142;17.052;2023-05-10T01:41:13;8.85;;;5.18;;
74309;SDS011;62722;51.142;17.052;2023-05-10T01:43:53;9.00;;;4.90;;
74309;SDS011;62722;51.142;17.052;2023-05-10T01:46:28;9.30;;;4.85;;
74309;SDS011;62722;51.142;17.052;2023-05-10T01:49:03;11.55;;;5.57;;
74309;SDS011;62722;51.142;17.052;2023-05-10T01:51:36;11.30;;;5.28;;
74309;SDS011;62722;51.142;17.052;2023-05-10T01:54:07;12.05;;;4.65;;
74309;SDS011;62722;51.142;17.052;2023-05-10T01:56:37;7.70;;;4.57;;
74309;SDS011;62722;51.142;17.052;2023-05-10T01:59:09;9.55;;;5.00;;
74309;SDS011;62722;51.142;17.052;2023-05-10T02:01:40;10.77;;;5.38;;
74309;SDS011;62722;51.142;17.052;2023-05-10T02:04:10;8.85;;;4.82;;
74309;SDS011;62722;51.142;17.052;2023-05-10T02:06:42;11.65;;;4.60;;
74309;SDS011;62722;51.142;17.052;2023-05-10T02:09:10;9.38;;;4.53;;
74309;SDS011;62722;51.142;17.052;2023-05-10T02:11:38;10.70;;;4.43;;
74309;SDS011;62722;51.142;17.052;2023-05-10T02:14:08;10.68;;;5.40;;
74309;SDS011;62722;51.142;17.052;2023-05-10T02:16:37;9.25;;;4.65;;
74309;SDS011;62722;51.142;17.052;2023-05-10T02:19:07;8.70;;;5.38;;
74309;SDS011;62722;51.142;17.052;2023-05-10T02:21:36;10.73;;;4.90;;
74309;SDS011;62722;51.142;17.052;2023-05-10T02:24:05;10.10;;;5.00;;
74309;SDS011;62722;51.142;17.052;2023-05-10T02:26:35;9.65;;;5.00;;
74309;SDS011;62722;51.142;17.052;2023-05-10T02:29:04;8.00;;;4.45;;
74309;SDS011;62722;51.142;17.052;2023-05-10T02:31:33;9.55;;;4.57;;
74309;SDS011;62722;51.142;17.052;2023-05-10T02:34:04;9.05;;;4.97;;
74309;SDS011;62722;51.142;17.052;2023-05-10T02:36:34;8.60;;;4.57;;
74309;SDS011;62722;51.142;17.052;2023-05-10T02:39:04;9.82;;;4.90;;
74309;SDS011;62722;51.142;17.052;2023-05-10T02:41:38;9.75;;;5.18;;
74309;SDS011;62722;51.142;17.052;2023-05-10T02:44:07;7.80;;;4.70;;
74309;SDS011;62722;51.142;17.052;2023-05-10T02:46:35;10.13;;;5.18;;
74309;SDS011;62722;51.142;17.052;2023-05-10T02:49:03;9.00;;;4.70;;
74309;SDS011;62722;51.142;17.052;2023-05-10T02:51:31;10.02;;;4.88;;
74309;SDS011;62722;51.142;17.052;2023-05-10T02:54:04;9.75;;;5.00;;
74309;SDS011;62722;51.142;17.052;2023-05-10T02:56:39;9.00;;;4.57;;
74309;SDS011;62722;51.142;17.052;2023-05-10T02:59:13;8.57;;;4.75;;
74309;SDS011;62722;51.142;17.052;2023-05-10T03:01:41;9.52;;;4.57;;
74309;SDS011;62722;51.142;17.052;2023-05-10T03:04:08;10.85;;;4.88;;
74309;SDS011;62722;51.142;17.052;2023-05-10T03:06:35;12.35;;;5.10;;
74309;SDS011;62722;51.142;17.052;2023-05-10T03:09:04;9.10;;;5.32;;
74309;SDS011;62722;51.142;17.052;2023-05-10T03:11:37;10.13;;;5.10;;
74309;SDS011;62722;51.142;17.052;2023-05-10T03:14:15;8.35;;;5.07;;
74309;SDS011;62722;51.142;17.052;2023-05-10T03:16:51;11.18;;;4.88;;
74309;SDS011;62722;51.142;17.052;2023-05-10T03:19:24;12.15;;;4.70;;
74309;SDS011;62722;51.142;17.052;2023-05-10T03:21:58;8.30;;;4.70;;
74309;SDS011;62722;51.142;17.052;2023-05-10T03:24:32;11.77;;;5.07;;
74309;SDS011;62722;51.142;17.052;2023-05-10T03:27:02;12.55;;;4.68;;
74309;SDS011;62722;51.142;17.052;2023-05-10T03:29:31;7.90;;;4.43;;
74309;SDS011;62722;51.142;17.052;2023-05-10T03:31:59;10.93;;;5.22;;
74309;SDS011;62722;51.142;17.052;2023-05-10T03:34:26;8.23;;;4.65;;
74309;SDS011;62722;51.142;17.052;2023-05-10T03:36:57;9.30;;;4.60;;
74309;SDS011;62722;51.142;17.052;2023-05-10T03:39:24;12.18;;;5.18;;
74309;SDS011;62722;51.142;17.052;2023-05-10T03:41:53;10.00;;;4.90;;
74309;SDS011;62722;51.142;17.052;2023-05-10T03:44:21;8.75;;;5.13;;
74309;SDS011;62722;51.142;17.052;2023-05-10T03:46:48;9.77;;;5.63;;
74309;SDS011;62722;51.142;17.052;2023-05-10T03:49:15;9.35;;;5.55;;
74309;SDS011;62722;51.142;17.052;2023-05-10T03:51:43;9.65;;;4.65;;
74309;SDS011;62722;51.142;17.052;2023-05-10T03:54:10;13.23;;;5.68;;
74309;SDS011;62722;51.142;17.052;2023-05-10T03:56:37;8.68;;;4.65;;
74309;SDS011;62722;51.142;17.052;2023-05-10T03:59:06;11.98;;;5.38;;
74309;SDS011;62722;51.142;17.052;2023-05-10T04:01:34;10.98;;;4.93;;
74309;SDS011;62722;51.142;17.052;2023-05-10T04:04:02;9.18;;;5.13;;
74309;SDS011;62722;51.142;17.052;2023-05-10T04:06:30;9.02;;;4.70;;
74309;SDS011;62722;51.142;17.052;2023-05-10T04:08:57;9.73;;;4.68;;
74309;SDS011;62722;51.142;17.052;2023-05-10T04:11:29;10.68;;;4.97;;
74309;SDS011;62722;51.142;17.052;2023-05-10T04:13:56;11.18;;;4.78;;
74309;SDS011;62722;51.142;17.052;2023-05-10T04:16:25;8.27;;;4.65;;
74309;SDS011;62722;51.142;17.052;2023-05-10T04:18:52;9.10;;;4.50;;
74309;SDS011;62722;51.142;17.052;2023-05-10T04:21:20;10.75;;;4.32;;
74309;SDS011;62722;51.142;17.052;2023-05-10T04:23:47;8.68;;;4.43;;
74309;SDS011;62722;51.142;17.052;2023-05-10T04:26:15;7.82;;;4.22;;
74309;SDS011;62722;51.142;17.052;2023-05-10T04:28:42;7.57;;;4.25;;
74309;SDS011;62722;51.142;17.052;2023-05-10T04:31:09;8.75;;;4.32;;
74309;SDS011;62722;51.142;17.052;2023-05-10T04:33:38;8.85;;;4.30;;
74309;SDS011;62722;51.142;17.052;2023-05-10T04:36:05;6.63;;;4.28;;
74309;SDS011;62722;51.142;17.052;2023-05-10T04:38:33;7.25;;;3.85;;
74309;SDS011;62722;51.142;17.052;2023-05-10T04:41:04;8.60;;;3.95;;
74309;SDS011;62722;51.142;17.052;2023-05-10T04:43:33;8.55;;;3.97;;
74309;SDS011;62722;51.142;17.052;2023-05-10T04:46:01;7.90;;;3.97;;
74309;SDS011;62722;51.142;17.052;2023-05-10T04:48:28;7.45;;;3.90;;
74309;SDS011;62722;51.142;17.052;2023-05-10T04:50:57;7.35;;;3.88;;
74309;SDS011;62722;51.142;17.052;2023-05-10T04:53:24;8.45;;;4.20;;
74309;SDS011;62722;51.142;17.052;2023-05-10T04:55:52;7.97;;;4.15;;
74309;SDS011;62722;51.142;17.052;2023-05-10T04:58:19;8.75;;;3.85;;
74309;SDS011;62722;51.142;17.052;2023-05-10T05:00:47;6.78;;;3.60;;
74309;SDS011;62722;51.142;17.052;2023-05-10T05:03:14;6.13;;;3.47;;
74309;SDS011;62722;51.142;17.052;2023-05-10T05:05:41;7.70;;;3.88;;
74309;SDS011;62722;51.142;17.052;2023-05-10T05:08:11;7.90;;;4.03;;
74309;SDS011;62722;51.142;17.052;2023-05-10T05:10:39;8.43;;;3.92;;
74309;SDS011;62722;51.142;17.052;2023-05-10T05:13:06;7.45;;;4.07;;
74309;SDS011;62722;51.142;17.052;2023-05-10T05:15:34;7.07;;;3.78;;
74309;SDS011;62722;51.142;17.052;2023-05-10T05:18:02;7.05;;;3.90;;
74309;SDS011;62722;51.142;17.052;2023-05-10T05:20:31;7.40;;;4.15;;
74309;SDS011;62722;51.142;17.052;2023-05-10T05:22:59;6.28;;;3.60;;
74309;SDS011;62722;51.142;17.052;2023-05-10T05:25:28;7.35;;;3.53;;
74309;SDS011;62722;51.142;17.052;2023-05-10T05:27:55;6.88;;;3.72;;
74309;SDS011;62722;51.142;17.052;2023-05-10T05:30:23;7.57;;;3.72;;
74309;SDS011;62722;51.142;17.052;2023-05-10T05:32:50;6.97;;;3.97;;
74309;SDS011;62722;51.142;17.052;2023-05-10T05:35:18;6.25;;;3.60;;
74309;SDS011;62722;51.142;17.052;2023-05-10T05:37:45;8.18;;;3.85;;
74309;SDS011;62722;51.142;17.052;2023-05-10T05:40:12;6.80;;;3.40;;
74309;SDS011;62722;51.142;17.052;2023-05-10T05:42:41;6.13;;;3.35;;
74309;SDS011;62722;51.142;17.052;2023-05-10T05:45:09;7.28;;;3.72;;
74309;SDS011;62722;51.142;17.052;2023-05-10T05:47:38;8.07;;;3.30;;
74309;SDS011;62722;51.142;17.052;2023-05-10T05:50:06;7.28;;;3.60;;
74309;SDS011;62722;51.142;17.052;2023-05-10T05:52:33;7.95;;;3.90;;
74309;SDS011;62722;51.142;17.052;2023-05-10T05:55:01;7.13;;;3.30;;
74309;SDS011;62722;51.142;17.052;2023-05-10T05:57:29;7.05;;;3.70;;
74309;SDS011;62722;51.142;17.052;2023-05-10T05:59:58;6.45;;;3.47;;
74309;SDS011;62722;51.142;17.052;2023-05-10T06:02:25;9.48;;;3.65;;
74309;SDS011;62722;51.142;17.052;2023-05-10T06:04:52;7.32;;;3.70;;
74309;SDS011;62722;51.142;17.052;2023-05-10T06:07:20;5.93;;;3.60;;
74309;SDS011;62722;51.142;17.052;2023-05-10T06:09:47;8.55;;;3.78;;
74309;SDS011;62722;51.142;17.052;2023-05-10T06:12:14;8.98;;;4.05;;
74309;SDS011;62722;51.142;17.052;2023-05-10T06:14:42;7.07;;;3.75;;
74309;SDS011;62722;51.142;17.052;2023-05-10T06:17:10;7.57;;;3.50;;
74309;SDS011;62722;51.142;17.052;2023-05-10T06:19:38;6.07;;;3.30;;
74309;SDS011;62722;51.142;17.052;2023-05-10T06:22:05;10.27;;;4.10;;
74309;SDS011;62722;51.142;17.052;2023-05-10T06:24:32;6.40;;;3.95;;
74309;SDS011;62722;51.142;17.052;2023-05-10T06:27:00;7.95;;;3.88;;
74309;SDS011;62722;51.142;17.052;2023-05-10T06:29:27;7.82;;;3.72;;
74309;SDS011;62722;51.142;17.052;2023-05-10T06:31:55;9.48;;;3.15;;
74309;SDS011;62722;51.142;17.052;2023-05-10T06:34:23;6.10;;;3.33;;
74309;SDS011;62722;51.142;17.052;2023-05-10T06:36:51;7.20;;;3.70;;
74309;SDS011;62722;51.142;17.052;2023-05-10T06:39:18;6.85;;;3.40;;
74309;SDS011;62722;51.142;17.052;2023-05-10T06:41:46;6.35;;;2.97;;
74309;SDS011;62722;51.142;17.052;2023-05-10T06:44:13;7.60;;;3.42;;
74309;SDS011;62722;51.142;17.052;2023-05-10T06:46:41;6.65;;;3.63;;
74309;SDS011;62722;51.142;17.052;2023-05-10T06:49:08;5.60;;;3.22;;
74309;SDS011;62722;51.142;17.052;2023-05-10T06:51:37;7.10;;;3.30;;
74309;SDS011;62722;51.142;17.052;2023-05-10T06:54:04;5.80;;;3.20;;
74309;SDS011;62722;51.142;17.052;2023-05-10T06:56:32;7.10;;;3.13;;
74309;SDS011;62722;51.142;17.052;2023-05-10T06:58:59;4.82;;;3.25;;
74309;SDS011;62722;51.142;17.052;2023-05-10T07:01:27;6.22;;;3.60;;
74309;SDS011;62722;51.142;17.052;2023-05-10T07:03:54;8.32;;;3.65;;
74309;SDS011;62722;51.142;17.052;2023-05-10T07:06:21;6.72;;;3.17;;
74309;SDS011;62722;51.142;17.052;2023-05-10T07:08:50;6.93;;;3.17;;
74309;SDS011;62722;51.142;17.052;2023-05-10T07:11:17;6.05;;;3.05;;
74309;SDS011;62722;51.142;17.052;2023-05-10T07:13:45;6.00;;;2.83;;
74309;SDS011;62722;51.142;17.052;2023-05-10T07:16:13;5.35;;;3.10;;
74309;SDS011;62722;51.142;17.052;2023-05-10T07:18:40;6.38;;;3.10;;
74309;SDS011;62722;51.142;17.052;2023-05-10T07:21:07;4.75;;;2.80;;
74309;SDS011;62722;51.142;17.052;2023-05-10T07:23:34;6.20;;;2.78;;
74309;SDS011;62722;51.142;17.052;2023-05-10T07:26:03;5.82;;;3.40;;
74309;SDS011;62722;51.142;17.052;2023-05-10T07:28:31;5.05;;;3.38;;
74309;SDS011;62722;51.142;17.052;2023-05-10T07:30:58;5.97;;;2.67;;
74309;SDS011;62722;51.142;17.052;2023-05-10T07:33:25;4.78;;;2.53;;
74309;SDS011;62722;51.142;17.052;2023-05-10T07:35:53;6.97;;;3.03;;
74309;SDS011;62722;51.142;17.052;2023-05-10T07:38:20;5.22;;;3.15;;
74309;SDS011;62722;51.142;17.052;2023-05-10T07:40:47;5.80;;;3.30;;
74309;SDS011;62722;51.142;17.052;2023-05-10T07:43:16;6.13;;;3.10;;
74309;SDS011;62722;51.142;17.052;2023-05-10T07:45:43;5.60;;;2.75;;
74309;SDS011;62722;51.142;17.052;2023-05-10T07:48:11;5.22;;;2.97;;
74309;SDS011;62722;51.142;17.052;2023-05-10T07:50:38;6.43;;;3.60;;
74309;SDS011;62722;51.142;17.052;2023-05-10T07:53:05;4.85;;;2.90;;
74309;SDS011;62722;51.142;17.052;2023-05-10T07:55:33;7.85;;;3.20;;
74309;SDS011;62722;51.142;17.052;2023-05-10T07:58:00;7.50;;;3.35;;
74309;SDS011;62722;51.142;17.052;2023-05-10T08:00:29;5.53;;;2.85;;
74309;SDS011;62722;51.142;17.052;2023-05-10T08:02:57;5.88;;;3.00;;
74309;SDS011;62722;51.142;17.052;2023-05-10T08:05:24;5.93;;;3.13;;
74309;SDS011;62722;51.142;17.052;2023-05-10T08:07:51;5.53;;;3.17;;
74309;SDS011;62722;51.142;17.052;2023-05-10T08:10:19;6.70;;;2.70;;
74309;SDS011;62722;51.142;17.052;2023-05-10T08:12:46;6.28;;;3.30;;
74309;SDS011;62722;51.142;17.052;2023-05-10T08:15:13;5.53;;;3.00;;
74309;SDS011;62722;51.142;17.052;2023-05-10T08:17:42;7.00;;;3.83;;
74309;SDS011;62722;51.142;17.052;2023-05-10T08:20:10;4.85;;;3.08;;
74309;SDS011;62722;51.142;17.052;2023-05-10T08:22:42;5.78;;;3.38;;
74309;SDS011;62722;51.142;17.052;2023-05-10T08:25:09;7.35;;;3.03;;
74309;SDS011;62722;51.142;17.052;2023-05-10T08:27:36;5.25;;;2.88;;
74309;SDS011;62722;51.142;17.052;2023-05-10T08:30:04;5.53;;;2.90;;
74309;SDS011;62722;51.142;17.052;2023-05-10T08:32:32;5.70;;;2.65;;
74309;SDS011;62722;51.142;17.052;2023-05-10T08:35:02;4.80;;;3.10;;
74309;SDS011;62722;51.142;17.052;2023-05-10T08:37:29;5.93;;;2.97;;
74309;SDS011;62722;51.142;17.052;2023-05-10T08:39:57;5.20;;;2.97;;
74309;SDS011;62722;51.142;17.052;2023-05-10T08:42:25;6.15;;;2.90;;
74309;SDS011;62722;51.142;17.052;2023-05-10T08:44:57;6.47;;;3.05;;
74309;SDS011;62722;51.142;17.052;2023-05-10T08:47:25;5.22;;;2.90;;
74309;SDS011;62722;51.142;17.052;2023-05-10T08:49:53;4.82;;;2.70;;
74309;SDS011;62722;51.142;17.052;2023-05-10T08:52:23;5.20;;;2.50;;
74309;SDS011;62722;51.142;17.052;2023-05-10T08:54:53;3.83;;;2.40;;
74309;SDS011;62722;51.142;17.052;2023-05-10T08:57:20;4.38;;;2.42;;
74309;SDS011;62722;51.142;17.052;2023-05-10T08:59:48;4.25;;;2.20;;
74309;SDS011;62722;51.142;17.052;2023-05-10T09:02:15;4.15;;;2.45;;
74309;SDS011;62722;51.142;17.052;2023-05-10T09:04:45;3.78;;;2.28;;
74309;SDS011;62722;51.142;17.052;2023-05-10T09:07:12;4.35;;;2.20;;
74309;SDS011;62722;51.142;17.052;2023-05-10T09:09:41;3.85;;;2.40;;
74309;SDS011;62722;51.142;17.052;2023-05-10T09:12:09;4.00;;;2.15;;
74309;SDS011;62722;51.142;17.052;2023-05-10T09:14:37;3.45;;;2.30;;
74309;SDS011;62722;51.142;17.052;2023-05-10T09:17:06;5.43;;;2.28;;
74309;SDS011;62722;51.142;17.052;2023-05-10T09:19:33;4.00;;;2.38;;
74309;SDS011;62722;51.142;17.052;2023-05-10T09:22:00;4.80;;;2.75;;
74309;SDS011;62722;51.142;17.052;2023-05-10T09:24:29;8.45;;;3.15;;
74309;SDS011;62722;51.142;17.052;2023-05-10T09:26:58;5.25;;;2.53;;
74309;SDS011;62722;51.142;17.052;2023-05-10T09:29:25;4.55;;;2.40;;
74309;SDS011;62722;51.142;17.052;2023-05-10T09:31:52;6.00;;;2.78;;
74309;SDS011;62722;51.142;17.052;2023-05-10T09:34:28;4.47;;;2.42;;
74309;SDS011;62722;51.142;17.052;2023-05-10T09:36:56;4.85;;;2.50;;
74309;SDS011;62722;51.142;17.052;2023-05-10T09:39:32;5.13;;;2.72;;
74309;SDS011;62722;51.142;17.052;2023-05-10T09:42:03;5.28;;;2.42;;
74309;SDS011;62722;51.142;17.052;2023-05-10T09:44:32;3.65;;;2.10;;
74309;SDS011;62722;51.142;17.052;2023-05-10T09:47:00;6.63;;;2.25;;
74309;SDS011;62722;51.142;17.052;2023-05-10T09:49:29;4.38;;;2.50;;
74309;SDS011;62722;51.142;17.052;2023-05-10T09:52:00;3.72;;;2.17;;
74309;SDS011;62722;51.142;17.052;2023-05-10T09:54:30;3.78;;;1.95;;
74309;SDS011;62722;51.142;17.052;2023-05-10T09:56:58;4.38;;;2.63;;
74309;SDS011;62722;51.142;17.052;2023-05-10T09:59:28;6.28;;;2.92;;
74309;SDS011;62722;51.142;17.052;2023-05-10T10:01:57;5.68;;;2.88;;
74309;SDS011;62722;51.142;17.052;2023-05-10T10:04:25;6.07;;;2.55;;
74309;SDS011;62722;51.142;17.052;2023-05-10T10:07:02;4.45;;;2.90;;
74309;SDS011;62722;51.142;17.052;2023-05-10T10:09:31;5.10;;;2.85;;
74309;SDS011;62722;51.142;17.052;2023-05-10T10:11:59;4.78;;;2.40;;
74309;SDS011;62722;51.142;17.052;2023-05-10T10:14:26;4.88;;;2.83;;
74309;SDS011;62722;51.142;17.052;2023-05-10T10:16:56;4.95;;;2.80;;
74309;SDS011;62722;51.142;17.052;2023-05-10T10:19:24;5.15;;;2.50;;
74309;SDS011;62722;51.142;17.052;2023-05-10T10:21:52;4.13;;;2.60;;
74309;SDS011;62722;51.142;17.052;2023-05-10T10:24:19;6.03;;;2.50;;
74309;SDS011;62722;51.142;17.052;2023-05-10T10:26:46;4.25;;;2.42;;
74309;SDS011;62722;51.142;17.052;2023-05-10T10:29:18;3.80;;;2.30;;
74309;SDS011;62722;51.142;17.052;2023-05-10T10:31:54;5.00;;;2.42;;
74309;SDS011;62722;51.142;17.052;2023-05-10T10:34:29;5.28;;;2.30;;
74309;SDS011;62722;51.142;17.052;2023-05-10T10:36:57;4.82;;;2.80;;
74309;SDS011;62722;51.142;17.052;2023-05-10T10:39:31;4.03;;;2.25;;
74309;SDS011;62722;51.142;17.052;2023-05-10T10:42:02;5.25;;;2.75;;
74309;SDS011;62722;51.142;17.052;2023-05-10T10:44:38;5.43;;;2.58;;
74309;SDS011;62722;51.142;17.052;2023-05-10T10:47:09;7.45;;;2.70;;
74309;SDS011;62722;51.142;17.052;2023-05-10T10:49:50;4.60;;;2.30;;
74309;SDS011;62722;51.142;17.052;2023-05-10T10:52:30;3.67;;;2.25;;
74309;SDS011;62722;51.142;17.052;2023-05-10T10:54:59;5.25;;;2.58;;
74309;SDS011;62722;51.142;17.052;2023-05-10T10:57:28;4.68;;;2.38;;
74309;SDS011;62722;51.142;17.052;2023-05-10T11:02:47;4.55;;;2.60;;
74309;SDS011;62722;51.142;17.052;2023-05-10T11:05:33;4.68;;;2.30;;
74309;SDS011;62722;51.142;17.052;2023-05-10T11:08:06;3.97;;;2.50;;
74309;SDS011;62722;51.142;17.052;2023-05-10T11:10:36;3.95;;;2.25;;
74309;SDS011;62722;51.142;17.052;2023-05-10T11:13:05;4.53;;;2.72;;
74309;SDS011;62722;51.142;17.052;2023-05-10T11:18:17;4.50;;;2.45;;
74309;SDS011;62722;51.142;17.052;2023-05-10T11:20:49;5.50;;;2.40;;
74309;SDS011;62722;51.142;17.052;2023-05-10T11:23:17;3.65;;;2.40;;
74309;SDS011;62722;51.142;17.052;2023-05-10T11:25:47;3.85;;;2.33;;
74309;SDS011;62722;51.142;17.052;2023-05-10T11:28:16;7.13;;;2.53;;
74309;SDS011;62722;51.142;17.052;2023-05-10T11:30:44;6.78;;;2.40;;
74309;SDS011;62722;51.142;17.052;2023-05-10T11:33:17;5.30;;;2.78;;
74309;SDS011;62722;51.142;17.052;2023-05-10T11:35:45;3.58;;;1.83;;
74309;SDS011;62722;51.142;17.052;2023-05-10T11:38:12;5.65;;;2.42;;
74309;SDS011;62722;51.142;17.052;2023-05-10T11:40:40;10.10;;;3.13;;
74309;SDS011;62722;51.142;17.052;2023-05-10T11:43:08;10.63;;;4.55;;
74309;SDS011;62722;51.142;17.052;2023-05-10T11:45:37;11.75;;;4.10;;
74309;SDS011;62722;51.142;17.052;2023-05-10T11:48:06;18.08;;;5.50;;
74309;SDS011;62722;51.142;17.052;2023-05-10T11:50:36;33.47;;;9.05;;
74309;SDS011;62722;51.142;17.052;2023-05-10T11:53:03;7.00;;;2.90;;
74309;SDS011;62722;51.142;17.052;2023-05-10T11:55:33;7.07;;;3.03;;
74309;SDS011;62722;51.142;17.052;2023-05-10T11:58:00;6.60;;;2.80;;
74309;SDS011;62722;51.142;17.052;2023-05-10T12:00:29;4.75;;;2.53;;
74309;SDS011;62722;51.142;17.052;2023-05-10T12:02:58;5.72;;;2.60;;
74309;SDS011;62722;51.142;17.052;2023-05-10T12:05:27;5.90;;;3.03;;
74309;SDS011;62722;51.142;17.052;2023-05-10T12:08:11;10.63;;;4.43;;
74309;SDS011;62722;51.142;17.052;2023-05-10T12:10:39;12.13;;;5.05;;
74309;SDS011;62722;51.142;17.052;2023-05-10T12:13:10;10.70;;;3.80;;
74309;SDS011;62722;51.142;17.052;2023-05-10T12:15:39;4.22;;;2.67;;
74309;SDS011;62722;51.142;17.052;2023-05-10T12:18:07;5.45;;;2.33;;
74309;SDS011;62722;51.142;17.052;2023-05-10T12:20:36;7.55;;;3.35;;
74309;SDS011;62722;51.142;17.052;2023-05-10T12:23:03;4.43;;;2.50;;
74309;SDS011;62722;51.142;17.052;2023-05-10T12:25:33;3.10;;;2.03;;
74309;SDS011;62722;51.142;17.052;2023-05-10T12:28:03;3.97;;;2.53;;
74309;SDS011;62722;51.142;17.052;2023-05-10T12:30:32;3.55;;;2.58;;
74309;SDS011;62722;51.142;17.052;2023-05-10T12:33:01;5.22;;;2.38;;
74309;SDS011;62722;51.142;17.052;2023-05-10T12:35:30;3.10;;;2.25;;
74309;SDS011;62722;51.142;17.052;2023-05-10T12:37:57;3.72;;;2.42;;
74309;SDS011;62722;51.142;17.052;2023-05-10T12:40:25;3.58;;;2.03;;
74309;SDS011;62722;51.142;17.052;2023-05-10T12:42:54;27.15;;;9.43;;
74309;SDS011;62722;51.142;17.052;2023-05-10T12:45:21;4.70;;;2.40;;
74309;SDS011;62722;51.142;17.052;2023-05-10T12:47:48;4.43;;;2.20;;
74309;SDS011;62722;51.142;17.052;2023-05-10T12:50:16;4.43;;;2.05;;
74309;SDS011;62722;51.142;17.052;2023-05-10T12:52:43;3.08;;;1.95;;
74309;SDS011;62722;51.142;17.052;2023-05-10T12:55:11;4.50;;;2.33;;
74309;SDS011;62722;51.142;17.052;2023-05-10T12:57:38;3.53;;;2.20;;
74309;SDS011;62722;51.142;17.052;2023-05-10T13:00:08;3.80;;;2.10;;
74309;SDS011;62722;51.142;17.052;2023-05-10T13:02:35;3.70;;;2.15;;
74309;SDS011;62722;51.142;17.052;2023-05-10T13:05:03;3.15;;;1.85;;
74309;SDS011;62722;51.142;17.052;2023-05-10T13:07:31;5.07;;;2.35;;
74309;SDS011;62722;51.142;17.052;2023-05-10T13:09:59;4.68;;;2.00;;
74309;SDS011;62722;51.142;17.052;2023-05-10T13:12:26;4.82;;;2.58;;
74309;SDS011;62722;51.142;17.052;2023-05-10T13:14:53;3.45;;;2.20;;
74309;SDS011;62722;51.142;17.052;2023-05-10T13:17:22;3.28;;;1.90;;
74309;SDS011;62722;51.142;17.052;2023-05-10T13:19:49;3.63;;;1.90;;
74309;SDS011;62722;51.142;17.052;2023-05-10T13:22:17;3.85;;;2.17;;
74309;SDS011;62722;51.142;17.052;2023-05-10T13:24:44;4.07;;;1.88;;
74309;SDS011;62722;51.142;17.052;2023-05-10T13:27:11;4.22;;;2.00;;
74309;SDS011;62722;51.142;17.052;2023-05-10T13:29:39;4.05;;;2.65;;
74309;SDS011;62722;51.142;17.052;2023-05-10T13:32:06;3.50;;;2.10;;
74309;SDS011;62722;51.142;17.052;2023-05-10T13:34:35;3.22;;;2.42;;
74309;SDS011;62722;51.142;17.052;2023-05-10T13:37:02;3.20;;;2.47;;
74309;SDS011;62722;51.142;17.052;2023-05-10T13:39:30;4.70;;;2.22;;
74309;SDS011;62722;51.142;17.052;2023-05-10T13:41:59;4.63;;;2.03;;
74309;SDS011;62722;51.142;17.052;2023-05-10T13:44:27;3.17;;;2.00;;
74309;SDS011;62722;51.142;17.052;2023-05-10T13:46:54;3.13;;;2.10;;
74309;SDS011;62722;51.142;17.052;2023-05-10T13:49:22;3.17;;;2.10;;
74309;SDS011;62722;51.142;17.052;2023-05-10T13:51:51;2.90;;;1.60;;
74309;SDS011;62722;51.142;17.052;2023-05-10T13:54:18;3.72;;;2.10;;
74309;SDS011;62722;51.142;17.052;2023-05-10T13:56:47;2.70;;;1.80;;
74309;SDS011;62722;51.142;17.052;2023-05-10T13:59:15;2.92;;;2.40;;
74309;SDS011;62722;51.142;17.052;2023-05-10T14:01:42;3.67;;;2.20;;
74309;SDS011;62722;51.142;17.052;2023-05-10T14:04:10;3.67;;;1.63;;
74309;SDS011;62722;51.142;17.052;2023-05-10T14:06:38;3.17;;;2.08;;
74309;SDS011;62722;51.142;17.052;2023-05-10T14:09:06;3.10;;;1.90;;
74309;SDS011;62722;51.142;17.052;2023-05-10T14:11:34;3.15;;;1.88;;
74309;SDS011;62722;51.142;17.052;2023-05-10T14:14:01;3.63;;;2.08;;
74309;SDS011;62722;51.142;17.052;2023-05-10T14:16:29;3.60;;;2.00;;
74309;SDS011;62722;51.142;17.052;2023-05-10T14:18:56;2.75;;;1.80;;
74309;SDS011;62722;51.142;17.052;2023-05-10T14:21:24;3.50;;;2.10;;
74309;SDS011;62722;51.142;17.052;2023-05-10T14:23:51;3.67;;;1.92;;
74309;SDS011;62722;51.142;17.052;2023-05-10T14:26:21;3.65;;;1.65;;
74309;SDS011;62722;51.142;17.052;2023-05-10T14:28:48;2.50;;;1.70;;
74309;SDS011;62722;51.142;17.052;2023-05-10T14:31:15;5.07;;;2.30;;
74309;SDS011;62722;51.142;17.052;2023-05-10T14:33:46;3.05;;;1.63;;
74309;SDS011;62722;51.142;17.052;2023-05-10T14:36:13;3.25;;;1.88;;
74309;SDS011;62722;51.142;17.052;2023-05-10T14:38:41;3.13;;;1.90;;
74309;SDS011;62722;51.142;17.052;2023-05-10T14:41:08;3.40;;;1.70;;
74309;SDS011;62722;51.142;17.052;2023-05-10T14:43:41;4.38;;;1.98;;
74309;SDS011;62722;51.142;17.052;2023-05-10T14:46:08;2.97;;;1.77;;
74309;SDS011;62722;51.142;17.052;2023-05-10T14:48:35;3.17;;;1.80;;
74309;SDS011;62722;51.142;17.052;2023-05-10T14:51:03;3.13;;;2.10;;
74309;SDS011;62722;51.142;17.052;2023-05-10T14:53:30;6.38;;;2.20;;